createdAt,value
2019-01-15T00:01:01.463Z,2.93
2019-01-15T00:03:30.633Z,2.30
2019-01-15T00:05:59.876Z,4.67
2019-01-15T00:08:29.398Z,3.13
2019-01-15T00:10:58.571Z,3.53
2019-01-15T00:13:27.810Z,2.20
2019-01-15T00:15:57.034Z,2.50
2019-01-15T00:18:26.251Z,2.40
2019-01-15T00:20:55.813Z,3.97
2019-01-15T00:23:25.086Z,2.10
2019-01-15T00:25:55.489Z,2.60
2019-01-15T00:28:24.672Z,2.47
2019-01-15T00:30:55.077Z,3.45
2019-01-15T00:33:24.571Z,3.37
2019-01-15T00:35:54.200Z,2.47
2019-01-15T00:38:23.445Z,3.50
2019-01-15T00:40:53.279Z,3.40
2019-01-15T00:43:22.796Z,2.40
2019-01-15T00:45:51.971Z,3.20
2019-01-15T00:48:21.526Z,2.10
2019-01-15T00:50:51.107Z,2.47
2019-01-15T00:53:20.258Z,2.43
2019-01-15T00:55:49.766Z,2.37
2019-01-15T00:58:20.950Z,2.50
2019-01-15T01:00:50.162Z,2.20
2019-01-15T01:03:19.317Z,4.07
2019-01-15T01:05:49.001Z,3.03
2019-01-15T01:08:18.572Z,2.73
2019-01-15T01:10:47.804Z,2.70
2019-01-15T01:13:17.075Z,2.87
2019-01-15T01:15:46.604Z,3.03
2019-01-15T01:18:15.864Z,2.80
2019-01-15T01:20:45.476Z,2.90
2019-01-15T01:23:14.962Z,2.63
2019-01-15T01:25:44.107Z,2.40
2019-01-15T01:28:13.689Z,3.20
2019-01-15T01:30:42.855Z,2.70
2019-01-15T01:33:12.048Z,2.60
2019-01-15T01:35:41.429Z,2.43
2019-01-15T01:38:10.874Z,2.77
2019-01-15T01:40:40.405Z,2.63
2019-01-15T01:43:10.030Z,3.40
2019-01-15T01:45:39.491Z,2.60
2019-01-15T01:48:09.028Z,3.13
2019-01-15T01:50:38.198Z,2.50
2019-01-15T01:53:08.058Z,2.70
2019-01-15T01:55:37.323Z,2.40
2019-01-15T01:58:06.918Z,2.40
2019-01-15T02:00:36.456Z,2.70
2019-01-15T02:03:05.790Z,3.10
2019-01-15T02:05:34.990Z,2.23
2019-01-15T02:08:04.400Z,2.70
2019-01-15T02:10:33.730Z,2.20
2019-01-15T02:13:05.202Z,2.10
2019-01-15T02:15:34.376Z,2.57
2019-01-15T02:18:03.569Z,2.50
2019-01-15T02:20:32.732Z,2.57
2019-01-15T02:23:01.964Z,4.00
2019-01-15T02:25:31.536Z,3.43
2019-01-15T02:28:00.827Z,3.53
2019-01-15T02:30:30.145Z,2.50
2019-01-15T02:32:59.660Z,3.53
2019-01-15T02:35:29.548Z,2.70
2019-01-15T02:37:59.090Z,3.00
2019-01-15T02:40:28.591Z,3.43
2019-01-15T02:42:57.901Z,3.57
2019-01-15T02:45:28.814Z,3.27
2019-01-15T02:47:58.001Z,4.40
2019-01-15T02:50:28.044Z,3.63
2019-01-15T02:52:57.220Z,4.30
2019-01-15T02:55:26.398Z,3.10
2019-01-15T02:57:56.478Z,4.50
2019-01-15T03:00:26.964Z,3.50
2019-01-15T03:02:57.993Z,4.30
2019-01-15T03:05:27.450Z,4.53
2019-01-15T03:07:56.658Z,4.30
2019-01-15T03:10:25.875Z,4.70
2019-01-15T03:12:56.823Z,4.03
2019-01-15T03:15:26.213Z,4.27
2019-01-15T03:17:55.864Z,3.60
2019-01-15T03:20:25.403Z,4.50
2019-01-15T03:22:54.993Z,4.40
2019-01-15T03:25:24.389Z,4.07
2019-01-15T03:27:53.988Z,3.83
2019-01-15T03:30:25.792Z,3.80
2019-01-15T03:32:55.164Z,3.57
2019-01-15T03:35:24.330Z,3.67
2019-01-15T03:37:53.520Z,3.67
2019-01-15T03:40:26.762Z,3.37
2019-01-15T03:43:03.181Z,3.50
2019-01-15T03:45:27.236Z,3.13
2019-01-15T03:47:56.559Z,3.40
2019-01-15T03:50:25.740Z,2.77
2019-01-15T03:52:54.903Z,3.60
2019-01-15T03:55:24.498Z,3.20
2019-01-15T03:57:54.097Z,2.40
2019-01-15T04:00:26.768Z,2.40
2019-01-15T04:02:57.204Z,2.20
2019-01-15T04:05:28.499Z,2.50
2019-01-15T04:08:01.070Z,2.80
2019-01-15T04:10:30.438Z,2.33
2019-01-15T04:12:59.693Z,3.60
2019-01-15T04:15:28.862Z,2.37
2019-01-15T04:17:58.210Z,3.23
2019-01-15T04:20:28.875Z,2.67
2019-01-15T04:22:58.096Z,2.53
2019-01-15T04:25:29.632Z,3.23
2019-01-15T04:27:59.443Z,1.90
2019-01-15T04:30:28.622Z,2.42
2019-01-15T04:32:57.820Z,2.37
2019-01-15T04:35:27.038Z,2.60
2019-01-15T04:37:56.558Z,2.53
2019-01-15T04:40:25.719Z,2.70
2019-01-15T04:42:55.258Z,3.67
2019-01-15T04:45:26.998Z,2.30
2019-01-15T04:47:56.197Z,3.53
2019-01-15T04:50:25.756Z,4.20
2019-01-15T04:52:59.659Z,2.53
2019-01-15T04:55:28.919Z,2.03
2019-01-15T04:57:58.437Z,3.43
2019-01-15T05:00:27.658Z,3.30
2019-01-15T05:02:59.851Z,3.73
2019-01-15T05:05:29.040Z,4.60
2019-01-15T05:07:58.230Z,5.07
2019-01-15T05:10:27.462Z,5.53
2019-01-15T05:12:57.639Z,5.40
2019-01-15T05:15:27.298Z,6.67
2019-01-15T05:17:56.947Z,8.67
2019-01-15T05:20:26.173Z,8.93
2019-01-15T05:22:55.852Z,7.93
2019-01-15T05:25:25.199Z,7.57
2019-01-15T05:27:54.761Z,8.77
2019-01-15T05:30:25.798Z,8.90
2019-01-15T05:32:55.415Z,10.23
2019-01-15T05:35:25.070Z,9.88
2019-01-15T05:37:54.662Z,11.30
2019-01-15T05:40:23.851Z,13.70
2019-01-15T05:42:53.628Z,12.30
2019-01-15T05:45:34.158Z,11.87
2019-01-15T05:48:22.291Z,13.17
2019-01-15T05:51:24.369Z,12.40
2019-01-15T05:53:53.997Z,13.80
2019-01-15T05:56:23.983Z,14.00
2019-01-15T05:58:53.506Z,13.53
2019-01-15T06:01:22.823Z,12.53
2019-01-15T06:03:52.104Z,13.70
2019-01-15T06:06:21.339Z,12.03
2019-01-15T06:08:50.497Z,13.63
2019-01-15T06:11:19.715Z,13.40
2019-01-15T06:13:49.296Z,12.70
2019-01-15T06:16:19.006Z,17.00
2019-01-15T06:18:48.630Z,14.30
2019-01-15T06:21:18.117Z,14.63
2019-01-15T06:23:47.335Z,14.87
2019-01-15T06:26:18.369Z,15.57
2019-01-15T06:28:47.772Z,13.87
2019-01-15T06:31:18.541Z,13.23
2019-01-15T06:33:47.715Z,14.33
2019-01-15T06:36:16.991Z,16.33
2019-01-15T06:38:46.567Z,14.50
2019-01-15T06:41:16.099Z,16.93
2019-01-15T06:43:50.021Z,15.77
2019-01-15T06:46:16.505Z,19.20
2019-01-15T06:48:45.705Z,22.20
2019-01-15T06:51:15.234Z,18.40
2019-01-15T06:53:44.768Z,17.43
2019-01-15T06:56:14.352Z,17.33
2019-01-15T06:58:43.915Z,20.00
2019-01-15T07:01:13.119Z,20.20
2019-01-15T07:03:42.353Z,21.80
2019-01-15T07:06:11.543Z,19.87
2019-01-15T07:08:41.500Z,28.00
2019-01-15T07:11:10.700Z,24.70
2019-01-15T07:13:39.944Z,24.30
2019-01-15T07:16:09.654Z,23.53
2019-01-15T07:18:38.835Z,23.30
2019-01-15T07:21:08.067Z,24.27
2019-01-15T07:23:37.687Z,25.53
2019-01-15T07:26:06.989Z,24.60
2019-01-15T07:28:36.212Z,23.27
2019-01-15T07:31:05.419Z,24.10
2019-01-15T07:33:35.009Z,24.37
2019-01-15T07:36:05.159Z,24.63
2019-01-15T07:38:34.724Z,22.33
2019-01-15T07:41:04.203Z,24.50
2019-01-15T07:43:33.581Z,25.00
2019-01-15T07:46:02.765Z,25.23
2019-01-15T07:48:31.987Z,23.43
2019-01-15T07:51:01.274Z,26.97
2019-01-15T07:53:31.407Z,28.27
2019-01-15T07:56:02.379Z,25.00
2019-01-15T07:58:31.584Z,29.17
2019-01-15T08:01:01.105Z,25.13
2019-01-15T08:03:30.403Z,27.30
2019-01-15T08:06:00.940Z,30.35
2019-01-15T08:08:30.118Z,29.67
2019-01-15T08:10:59.440Z,28.10
2019-01-15T08:13:30.448Z,27.30
2019-01-15T08:15:59.957Z,27.20
2019-01-15T08:18:29.128Z,26.50
2019-01-15T08:20:58.394Z,30.93
2019-01-15T08:23:28.296Z,26.90
2019-01-15T08:25:57.497Z,30.57
2019-01-15T08:28:27.007Z,29.17
2019-01-15T08:30:56.647Z,26.43
2019-01-15T08:33:26.006Z,29.10
2019-01-15T08:35:55.274Z,27.17
2019-01-15T08:38:24.725Z,35.77
2019-01-15T08:40:54.264Z,28.30
2019-01-15T08:43:26.289Z,27.67
2019-01-15T08:45:56.218Z,28.67
2019-01-15T08:48:27.984Z,28.97
2019-01-15T08:50:57.436Z,28.77
2019-01-15T08:53:27.190Z,28.73
2019-01-15T08:55:59.168Z,27.10
2019-01-15T08:58:28.420Z,28.10
2019-01-15T09:00:58.107Z,27.47
2019-01-15T09:03:27.306Z,27.57
2019-01-15T09:05:56.618Z,24.77
2019-01-15T09:08:26.989Z,24.70
2019-01-15T09:10:56.215Z,25.43
2019-01-15T09:13:25.399Z,27.57
2019-01-15T09:15:54.651Z,26.00
2019-01-15T09:18:24.166Z,24.67
2019-01-15T09:20:53.356Z,24.20
2019-01-15T09:23:22.657Z,24.43
2019-01-15T09:25:52.012Z,26.50
2019-01-15T09:28:21.224Z,24.43
2019-01-15T09:30:50.437Z,23.07
2019-01-15T09:33:19.949Z,23.87
2019-01-15T09:35:49.532Z,25.00
2019-01-15T09:38:19.591Z,20.20
2019-01-15T09:40:49.139Z,21.30
2019-01-15T09:43:18.330Z,19.37
2019-01-15T09:45:47.505Z,21.67
2019-01-15T09:48:20.272Z,18.97
2019-01-15T09:50:49.457Z,19.53
2019-01-15T09:53:18.669Z,21.53
2019-01-15T09:55:48.003Z,18.40
2019-01-15T09:58:17.223Z,19.10
2019-01-15T10:00:46.385Z,17.83
2019-01-15T10:03:16.721Z,15.57
2019-01-15T10:05:45.984Z,16.60
2019-01-15T10:08:15.476Z,15.17
2019-01-15T10:10:44.693Z,13.55
2019-01-15T10:13:14.017Z,14.70
2019-01-15T10:15:44.617Z,14.13
2019-01-15T10:18:14.090Z,12.93
2019-01-15T10:20:43.824Z,10.83
2019-01-15T10:23:13.413Z,12.47
2019-01-15T10:25:42.849Z,11.20
2019-01-15T10:28:12.626Z,10.50
2019-01-15T10:31:05.512Z,9.43
2019-01-15T10:33:48.446Z,8.80
2019-01-15T10:36:16.013Z,11.97
2019-01-15T10:38:45.211Z,8.83
2019-01-15T10:41:14.757Z,8.40
2019-01-15T10:43:44.484Z,8.90
2019-01-15T10:46:13.626Z,8.80
2019-01-15T10:48:44.660Z,8.27
2019-01-15T10:51:15.747Z,8.97
2019-01-15T10:53:45.261Z,8.47
2019-01-15T10:56:14.499Z,8.57
2019-01-15T10:58:43.800Z,10.57
2019-01-15T11:01:13.286Z,9.20
2019-01-15T11:03:42.829Z,8.90
2019-01-15T11:06:12.301Z,8.10
2019-01-15T11:08:41.487Z,8.33
2019-01-15T11:11:10.903Z,8.98
2019-01-15T11:13:40.063Z,8.27
2019-01-15T11:16:09.533Z,7.63
2019-01-15T11:18:39.590Z,6.70
2019-01-15T11:21:09.227Z,7.33
2019-01-15T11:23:38.727Z,7.27
2019-01-15T11:26:07.941Z,7.90
2019-01-15T11:28:37.297Z,7.53
2019-01-15T11:31:06.738Z,7.60
2019-01-15T11:33:35.897Z,8.77
2019-01-15T11:36:05.304Z,7.83
2019-01-15T11:38:36.127Z,6.93
2019-01-15T11:41:05.486Z,7.27
2019-01-15T11:43:35.218Z,8.10
2019-01-15T11:46:04.913Z,7.17
2019-01-15T11:48:34.056Z,6.87
2019-01-15T11:51:03.365Z,7.30
2019-01-15T11:53:32.593Z,6.47
2019-01-15T11:56:03.351Z,7.43
2019-01-15T11:58:32.609Z,5.80
2019-01-15T12:01:15.305Z,8.60
2019-01-15T12:03:53.832Z,6.50
2019-01-15T12:06:57.383Z,7.00
2019-01-15T12:09:51.555Z,7.27
2019-01-15T12:12:38.269Z,7.90
2019-01-15T12:15:45.458Z,7.60
2019-01-15T12:18:36.645Z,5.70
2019-01-15T12:21:24.919Z,6.30
2019-01-15T12:24:12.355Z,6.47
2019-01-15T12:26:55.013Z,6.87
2019-01-15T12:29:46.274Z,7.70
2019-01-15T12:32:30.590Z,7.83
2019-01-15T12:35:21.543Z,6.50
2019-01-15T12:38:09.706Z,7.20
2019-01-15T12:41:16.304Z,5.30
2019-01-15T12:44:03.379Z,7.30
2019-01-15T12:46:50.829Z,6.23
2019-01-15T12:49:45.534Z,7.37
2019-01-15T12:52:36.560Z,7.08
2019-01-15T12:55:41.161Z,6.50
2019-01-15T12:58:21.986Z,7.40
2019-01-15T13:01:08.904Z,9.00
2019-01-15T13:03:57.023Z,6.90
2019-01-15T13:06:45.178Z,6.87
2019-01-15T13:09:32.171Z,7.53
2019-01-15T13:12:23.064Z,7.63
2019-01-15T13:15:10.095Z,7.00
2019-01-15T13:17:56.898Z,7.13
2019-01-15T13:20:50.894Z,7.80
2019-01-15T13:23:54.455Z,7.47
2019-01-15T13:26:48.637Z,7.60
2019-01-15T13:29:36.808Z,7.43
2019-01-15T13:32:41.413Z,8.50
2019-01-15T13:35:38.014Z,8.40
2019-01-15T13:38:29.327Z,8.10
2019-01-15T13:41:16.084Z,9.57
2019-01-15T13:44:07.307Z,9.80
2019-01-15T13:46:51.302Z,7.30
2019-01-15T13:49:51.818Z,8.57
2019-01-15T13:52:36.978Z,8.17
2019-01-15T13:55:21.894Z,8.33
2019-01-15T13:58:24.704Z,8.43
2019-01-15T14:01:09.192Z,9.90
2019-01-15T14:04:00.538Z,9.30
2019-01-15T14:06:58.195Z,8.30
2019-01-15T14:09:46.511Z,8.97
2019-01-15T14:12:40.787Z,7.63
2019-01-15T14:15:49.016Z,8.93
2019-01-15T14:18:36.256Z,8.77
2019-01-15T14:21:23.396Z,7.60
2019-01-15T14:24:11.503Z,8.43
2019-01-15T14:26:52.895Z,8.10
2019-01-15T14:29:41.269Z,9.20
2019-01-15T14:32:32.476Z,8.43
2019-01-15T14:35:34.027Z,8.90
2019-01-15T14:38:27.588Z,7.47
2019-01-15T14:41:14.759Z,8.63
2019-01-15T14:43:56.420Z,8.83
2019-01-15T14:46:59.994Z,7.57
2019-01-15T14:49:57.337Z,8.73
2019-01-15T14:52:36.506Z,8.10
2019-01-15T14:55:25.053Z,8.33
2019-01-15T14:58:28.566Z,8.43
2019-01-15T15:01:15.180Z,7.83
2019-01-15T15:03:55.055Z,8.07
2019-01-15T15:06:49.343Z,8.37
2019-01-15T15:09:41.778Z,8.20
2019-01-15T15:12:39.018Z,8.57
2019-01-15T15:15:34.208Z,7.65
2019-01-15T15:18:22.321Z,9.37
2019-01-15T15:21:09.876Z,8.10
2019-01-15T15:24:07.028Z,7.80
2019-01-15T15:26:58.325Z,8.53
2019-01-15T15:29:45.400Z,9.40
2019-01-15T15:32:28.261Z,7.67
2019-01-15T15:35:24.218Z,7.80
2019-01-15T15:38:11.835Z,8.50
2019-01-15T15:41:08.470Z,8.10
2019-01-15T15:43:48.166Z,8.77
2019-01-15T15:46:41.174Z,7.60
2019-01-15T15:49:32.327Z,7.63
2019-01-15T15:52:21.104Z,6.50
2019-01-15T15:55:05.117Z,7.03
2019-01-15T15:57:58.056Z,7.93
2019-01-15T16:00:53.189Z,7.50
2019-01-15T16:03:50.918Z,8.03
2019-01-15T16:06:38.911Z,8.77
2019-01-15T16:09:27.586Z,7.90
2019-01-15T16:12:16.574Z,9.40
2019-01-15T16:15:23.454Z,9.20
2019-01-15T16:18:15.124Z,8.10
2019-01-15T16:21:19.020Z,8.20
2019-01-15T16:24:07.152Z,9.17
2019-01-15T16:26:56.430Z,8.30
2019-01-15T16:29:59.928Z,9.60
2019-01-15T16:32:58.682Z,10.63
2019-01-15T16:35:35.932Z,9.00
2019-01-15T16:38:27.330Z,9.30
2019-01-15T16:41:17.477Z,9.80
2019-01-15T16:44:12.088Z,10.57
2019-01-15T16:47:06.374Z,10.60
2019-01-15T16:49:53.915Z,12.27
2019-01-15T16:52:41.460Z,18.50
2019-01-15T16:55:21.290Z,13.80
2019-01-15T16:58:22.831Z,13.50
2019-01-15T17:01:20.051Z,16.23
2019-01-15T17:04:07.135Z,13.97
2019-01-15T17:06:54.726Z,15.10
2019-01-15T17:09:37.136Z,14.70
2019-01-15T17:12:31.778Z,16.83
2019-01-15T17:15:32.299Z,17.90
2019-01-15T17:18:19.432Z,15.57
2019-01-15T17:21:07.966Z,17.90
2019-01-15T17:23:53.087Z,18.80
2019-01-15T17:26:41.238Z,17.40
2019-01-15T17:29:35.596Z,17.50
2019-01-15T17:32:23.727Z,17.47
2019-01-15T17:35:14.673Z,16.53
2019-01-15T17:37:58.575Z,18.90
2019-01-15T17:40:54.267Z,16.23
2019-01-15T17:43:39.781Z,17.03
2019-01-15T17:46:41.719Z,27.07
2019-01-15T17:49:32.706Z,19.67
2019-01-15T17:52:26.705Z,22.17
2019-01-15T17:55:16.697Z,20.80
2019-01-15T17:58:14.209Z,19.33
2019-01-15T18:01:02.672Z,19.83
2019-01-15T18:03:53.395Z,19.17
2019-01-15T18:06:54.958Z,21.73
2019-01-15T18:09:46.557Z,21.23
2019-01-15T18:12:33.938Z,20.97
2019-01-15T18:15:21.204Z,18.67
2019-01-15T18:18:09.575Z,23.87
2019-01-15T18:20:47.046Z,22.63
2019-01-15T18:23:39.209Z,19.50
2019-01-15T18:26:26.366Z,20.40
2019-01-15T18:29:11.027Z,21.80
2019-01-15T18:32:03.358Z,24.50
2019-01-15T18:34:59.196Z,21.97
2019-01-15T18:37:43.351Z,22.47
2019-01-15T18:40:30.563Z,22.30
2019-01-15T18:43:34.489Z,23.00
2019-01-15T18:46:17.902Z,22.05
2019-01-15T18:49:05.331Z,21.17
2019-01-15T18:51:53.789Z,24.00
2019-01-15T18:55:01.692Z,21.50
2019-01-15T18:57:58.778Z,24.70
2019-01-15T19:00:53.240Z,22.20
2019-01-15T19:03:42.272Z,21.57
2019-01-15T19:06:29.861Z,22.80
2019-01-15T19:09:24.098Z,21.47
2019-01-15T19:12:18.775Z,23.40
2019-01-15T19:15:02.151Z,22.77
2019-01-15T19:17:52.049Z,22.80
2019-01-15T19:20:43.832Z,22.23
2019-01-15T19:23:30.874Z,25.20
2019-01-15T19:26:19.202Z,22.40
2019-01-15T19:29:06.275Z,23.37
2019-01-15T19:32:09.872Z,32.80
2019-01-15T19:35:03.417Z,22.87
2019-01-15T19:37:54.869Z,24.40
2019-01-15T19:40:46.107Z,21.73
2019-01-15T19:43:35.265Z,20.30
2019-01-15T19:46:26.459Z,24.20
2019-01-15T19:49:26.960Z,22.03
2019-01-15T19:52:21.268Z,26.07
2019-01-15T19:55:19.608Z,21.23
2019-01-15T19:58:06.425Z,25.50
2019-01-15T20:00:52.991Z,29.47
2019-01-15T20:03:36.133Z,23.50
2019-01-15T20:06:23.369Z,27.00
2019-01-15T20:09:10.155Z,25.00
2019-01-15T20:12:07.447Z,24.70
2019-01-15T20:15:03.679Z,22.47
2019-01-15T20:17:50.969Z,24.00
2019-01-15T20:20:42.422Z,24.60
2019-01-15T20:23:36.577Z,23.13
2019-01-15T20:26:42.914Z,23.80
2019-01-15T20:29:46.786Z,22.30
2019-01-15T20:32:28.775Z,21.43
2019-01-15T20:35:33.474Z,21.23
2019-01-15T20:38:16.317Z,22.17
2019-01-15T20:41:07.700Z,20.73
2019-01-15T20:43:54.934Z,23.60
2019-01-15T20:46:42.063Z,22.67
2019-01-15T20:49:45.338Z,21.70
2019-01-15T20:52:53.401Z,22.90
2019-01-15T20:55:31.847Z,24.80
2019-01-15T20:58:23.313Z,19.50
2019-01-15T21:01:20.674Z,20.23
2019-01-15T21:04:07.825Z,18.07
2019-01-15T21:06:48.706Z,20.00
2019-01-15T21:09:36.829Z,19.10
2019-01-15T21:12:30.858Z,17.73
2019-01-15T21:15:17.674Z,18.50
2019-01-15T21:18:23.991Z,19.13
2019-01-15T21:21:21.232Z,18.80
2019-01-15T21:24:09.354Z,19.50
2019-01-15T21:26:57.487Z,18.90
2019-01-15T21:29:47.191Z,20.33
2019-01-15T21:32:37.154Z,20.67
2019-01-15T21:35:33.055Z,19.77
2019-01-15T21:38:14.507Z,19.87
2019-01-15T21:41:01.680Z,20.70
2019-01-15T21:43:43.315Z,18.77
2019-01-15T21:46:30.402Z,19.57
2019-01-15T21:49:17.316Z,18.23
2019-01-15T21:52:11.815Z,19.70
2019-01-15T21:55:15.294Z,19.17
2019-01-15T21:58:09.697Z,16.90
2019-01-15T22:01:13.124Z,20.40
2019-01-15T22:04:07.827Z,18.67
2019-01-15T22:07:05.334Z,19.10
2019-01-15T22:09:52.297Z,19.57
2019-01-15T22:12:52.743Z,21.17
2019-01-15T22:15:41.343Z,19.80
2019-01-15T22:18:28.411Z,21.60
2019-01-15T22:21:19.430Z,22.40
2019-01-15T22:24:10.396Z,23.70
2019-01-15T22:26:58.848Z,19.53
2019-01-15T22:29:50.378Z,24.00
2019-01-15T22:32:37.121Z,21.70
2019-01-15T22:35:24.163Z,22.67
2019-01-15T22:38:12.851Z,22.40
2019-01-15T22:40:53.795Z,19.60
2019-01-15T22:43:42.197Z,21.10
2019-01-15T22:46:33.611Z,18.30
2019-01-15T22:49:37.066Z,21.60
2019-01-15T22:52:43.773Z,22.83
2019-01-15T22:55:23.145Z,21.43
2019-01-15T22:58:20.706Z,21.93
2019-01-15T23:01:07.835Z,19.60
2019-01-15T23:03:54.912Z,18.43
2019-01-15T23:06:52.175Z,20.03
2019-01-15T23:09:46.748Z,21.87
2019-01-15T23:12:33.704Z,19.60
2019-01-15T23:15:36.991Z,19.77
2019-01-15T23:18:23.795Z,20.17
2019-01-15T23:21:18.617Z,17.73
2019-01-15T23:24:03.937Z,18.53
2019-01-15T23:26:52.777Z,16.20
2019-01-15T23:29:39.769Z,20.33
2019-01-15T23:32:16.476Z,18.45
2019-01-15T23:35:03.657Z,20.07
2019-01-15T23:37:58.893Z,18.63
2019-01-15T23:40:46.302Z,21.30
2019-01-15T23:43:33.625Z,20.03
2019-01-15T23:46:17.105Z,20.97
2019-01-15T23:49:04.130Z,18.67
2019-01-15T23:51:56.112Z,19.70
2019-01-15T23:54:47.303Z,19.77
2019-01-15T23:57:35.649Z,19.00
